Mountain Park, OK (73559)

11:59 PM CDT on August 19, 2014 (GMT -0500)
RAWS WICHITA OK US | Change Station
CLOSE
Current Station
Personal Weather Station
Location: Meers, OK
Elevation: 1832 ft
Nearby Weather Stations

Elev 1832 ft 34.76 °N, 98.74 °W | Updated 30 minutes ago

Scattered Clouds
Scattered Clouds
81 °F
Feels Like 83 °F
N
14
Wind Variable Wind from SSE
Gusts 25.0 mph

Today
High -- | Low -- °F
--% Chance of Precip.
Yesterday
High -- | Low -- °F
Precip. -- in
6:59 AM 8:18 PM
Waning Crescent, 24% visible
Pressure 29.82 in
Visibility 10.0 miles
Clouds Scattered Clouds 6000 ft
Heat Index 83 °F
Dew Point 64 °F
Humidity 57%
Rainfall 0.00 in
Snow Depth Not available.
UV 0 out of 12
Pollen 9.40 out of 12
Air Quality Not available.
Flu Activity Not available.
METAR KLTS 200358Z 14007KT 10SM SCT060 28/19 A2987 RMK AO2A SLP097 $

More Conditions Fewer Conditions

Pressure 29.82 in
Visibility 10.0 miles
Clouds Scattered Clouds 6000 ft
Heat Index 83 °F
Dew Point 64 °F
Humidity 57%
Rainfall 0.00 in
Snow Depth Not available.
UV 0 out of 12
Pollen 9.40 out of 12
Air Quality Not available.
Flu Activity Not available.
METAR KLTS 200358Z 14007KT 10SM SCT060 28/19 A2987 RMK AO2A SLP097 $

More Conditions Fewer Conditions

10-Day Weather Forecast

Almanac

Astronomy

Aug. 19, 2014 Rise Set
Actual Time 6:59 AM CDT 8:18 PM CDT
Civil Twilight 6:32 AM CDT 8:45 PM CDT
Nautical Twilight 6:01 AM CDT 9:16 PM CDT
Astronomical Twilight 5:28 AM CDT 9:49 PM CDT
Moon 1:56 AM CDT (8/19) 4:12 PM CDT (8/19)
Length of Visible Light 14h 12m
Length of Day
13h 19m
Tomorrow will be 1m 57s shorter.
Waning Crescent, 24% of the Moon is Illuminated
Aug 20
Waning Crescent
Aug 25
New
Sep 2
First Quarter
Sep 8
Full
Sep 15
Last Quarter

Yesterday's Extremes

State Highs State Lows

Community

WunderPhotos

Upload Photos

1,745,585 photos uploaded!

Nearby

Snow Depth

Station Depth Elevation
No new snow has been reported.

Earthquake Activity

City Distance Mag. Time & Date
Langston, Oklahoma 129 miles 2.9 9:49 PM CDT
2014-08-14
Perry, Oklahoma 153 miles 2.7 6:20 PM CDT
2014-08-14
Perry, Oklahoma 153 miles 2.8 2:04 PM CDT
2014-08-14
Langston, Oklahoma 122 miles 3.1 9:15 AM CDT
2014-08-14
Minimum magnitude displayed is 2.5.

Coastal Water Temperatures

Place Temperature
No Stations Reporting

Nearby Weather Stations